createdAt,value
2023-04-15T00:01:06.588Z,5.76
2023-04-15T00:03:35.687Z,5.91
2023-04-15T00:06:06.295Z,6.02
2023-04-15T00:08:34.472Z,6.03
2023-04-15T00:11:05.935Z,6.00
2023-04-15T00:13:35.827Z,6.03
2023-04-15T00:16:04.098Z,6.05
2023-04-15T00:18:32.392Z,6.06
2023-04-15T00:21:00.634Z,5.75
2023-04-15T00:23:28.895Z,5.44
2023-04-15T00:25:56.937Z,5.55
2023-04-15T00:28:25.669Z,5.63
2023-04-15T00:30:55.095Z,5.60
2023-04-15T00:33:24.217Z,5.32
2023-04-15T00:35:52.228Z,5.14
2023-04-15T00:38:20.287Z,5.06
2023-04-15T00:40:48.462Z,4.74
2023-04-15T00:43:18.253Z,4.55
2023-04-15T00:45:47.261Z,4.43
2023-04-15T00:48:17.798Z,4.33
2023-04-15T00:50:48.421Z,4.47
2023-04-15T00:53:17.347Z,4.45
2023-04-15T00:55:45.479Z,4.57
2023-04-15T00:58:14.108Z,4.80
2023-04-15T01:00:44.400Z,4.94
2023-04-15T01:03:13.554Z,5.00
2023-04-15T01:05:45.263Z,4.92
2023-04-15T01:08:15.319Z,4.85
2023-04-15T01:10:45.324Z,4.95
2023-04-15T01:13:18.753Z,5.16
2023-04-15T01:15:48.014Z,5.52
2023-04-15T01:18:18.409Z,5.50
2023-04-15T01:20:49.954Z,5.30
2023-04-15T01:23:19.115Z,5.21
2023-04-15T01:25:50.708Z,5.41
2023-04-15T01:28:20.792Z,5.51
2023-04-15T01:30:49.316Z,5.60
2023-04-15T01:33:18.018Z,5.64
2023-04-15T01:35:48.153Z,5.18
2023-04-15T01:38:16.873Z,5.22
2023-04-15T01:40:47.153Z,5.41
2023-04-15T01:43:18.101Z,5.40
2023-04-15T01:45:47.216Z,4.94
2023-04-15T01:48:17.400Z,5.09
2023-04-15T01:50:45.932Z,5.01
2023-04-15T01:53:16.178Z,4.94
2023-04-15T01:55:44.442Z,4.85
2023-04-15T01:58:17.909Z,4.61
2023-04-15T02:00:46.355Z,4.72
2023-04-15T02:03:16.073Z,4.90
2023-04-15T02:05:44.435Z,4.96
2023-04-15T02:08:13.525Z,5.17
2023-04-15T02:10:41.786Z,5.34
2023-04-15T02:13:09.842Z,5.54
2023-04-15T02:15:41.090Z,5.66
2023-04-15T02:18:10.072Z,5.57
2023-04-15T02:20:38.860Z,5.48
2023-04-15T02:23:07.798Z,5.42
2023-04-15T02:25:37.340Z,5.20
2023-04-15T02:28:08.975Z,5.11
2023-04-15T02:30:37.911Z,5.02
2023-04-15T02:33:07.971Z,4.90
2023-04-15T02:35:39.277Z,5.06
2023-04-15T02:38:07.637Z,5.26
2023-04-15T02:40:35.356Z,5.45
2023-04-15T02:43:06.946Z,5.47
2023-04-15T02:45:35.884Z,5.27
2023-04-15T02:48:07.931Z,5.32
2023-04-15T02:50:39.752Z,5.30
2023-04-15T02:53:08.899Z,5.22
2023-04-15T02:55:37.013Z,5.10
2023-04-15T02:58:04.943Z,5.11
2023-04-15T03:00:33.425Z,5.16
2023-04-15T03:03:04.141Z,5.18
2023-04-15T03:05:33.901Z,5.21
2023-04-15T03:08:05.152Z,5.19
2023-04-15T03:10:33.332Z,5.18
2023-04-15T03:13:02.928Z,5.07
2023-04-15T03:15:32.451Z,5.05
2023-04-15T03:18:06.002Z,4.81
2023-04-15T03:20:37.790Z,5.02
2023-04-15T03:23:06.392Z,5.09
2023-04-15T03:25:35.530Z,5.13
2023-04-15T03:28:07.286Z,5.09
2023-04-15T03:30:36.031Z,5.09
2023-04-15T03:33:04.520Z,5.05
2023-04-15T03:35:34.184Z,5.06
2023-04-15T03:38:04.505Z,5.18
2023-04-15T03:40:33.090Z,5.40
2023-04-15T03:43:01.803Z,5.21
2023-04-15T03:45:30.374Z,4.92
2023-04-15T03:48:11.377Z,4.58
2023-04-15T03:50:44.114Z,4.92
2023-04-15T03:53:14.893Z,5.00
2023-04-15T03:55:44.898Z,5.02
2023-04-15T03:58:13.278Z,5.05
2023-04-15T04:00:42.046Z,5.01
2023-04-15T04:03:11.120Z,4.97
2023-04-15T04:05:41.768Z,4.96
2023-04-15T04:08:10.525Z,4.97
2023-04-15T04:10:40.762Z,5.00
2023-04-15T04:13:09.477Z,4.97
2023-04-15T04:15:37.970Z,4.99
2023-04-15T04:18:06.658Z,5.00
2023-04-15T04:20:35.089Z,5.05
2023-04-15T04:23:03.505Z,5.02
2023-04-15T04:25:31.450Z,5.08
2023-04-15T04:28:01.064Z,5.20
2023-04-15T04:30:28.907Z,5.20
2023-04-15T04:32:57.084Z,5.23
2023-04-15T04:35:24.932Z,5.26
2023-04-15T04:37:54.054Z,5.27
2023-04-15T04:40:22.598Z,5.27
2023-04-15T04:42:50.490Z,5.39
2023-04-15T04:45:20.205Z,5.40
2023-04-15T04:47:48.853Z,5.32
2023-04-15T04:50:18.295Z,5.31
2023-04-15T04:52:47.326Z,5.28
2023-04-15T04:55:15.653Z,5.18
2023-04-15T04:57:44.154Z,5.07
2023-04-15T05:00:13.368Z,5.11
2023-04-15T05:02:47.115Z,5.07
2023-04-15T05:05:16.390Z,5.05
2023-04-15T05:07:44.534Z,5.07
2023-04-15T05:10:13.261Z,5.02
2023-04-15T05:12:41.620Z,5.05
2023-04-15T05:15:11.527Z,5.13
2023-04-15T05:17:39.774Z,5.27
2023-04-15T05:20:12.673Z,5.38
2023-04-15T05:22:41.609Z,5.51
2023-04-15T05:25:14.268Z,5.56
2023-04-15T05:27:43.498Z,5.59
2023-04-15T05:30:13.540Z,5.66
2023-04-15T05:32:43.712Z,5.77
2023-04-15T05:35:14.760Z,5.95
2023-04-15T05:37:43.549Z,5.94
2023-04-15T05:40:12.017Z,5.87
2023-04-15T05:42:41.165Z,6.00
2023-04-15T05:45:10.708Z,5.92
2023-04-15T05:47:39.088Z,6.14
2023-04-15T05:50:08.514Z,6.49
2023-04-15T05:52:40.708Z,6.71
2023-04-15T05:55:09.041Z,6.91
2023-04-15T05:57:41.481Z,7.06
2023-04-15T06:00:11.604Z,7.26
2023-04-15T06:02:39.649Z,6.59
2023-04-15T06:05:10.049Z,6.00
2023-04-15T06:07:41.424Z,5.52
2023-04-15T06:10:10.714Z,5.50
2023-04-15T06:12:38.845Z,5.60
2023-04-15T06:15:10.682Z,5.46
2023-04-15T06:17:39.149Z,5.83
2023-04-15T06:20:08.591Z,5.86
2023-04-15T06:22:38.343Z,6.15
2023-04-15T06:25:12.007Z,6.99
2023-04-15T06:27:40.640Z,7.51
2023-04-15T06:30:09.396Z,7.56
2023-04-15T06:32:37.472Z,7.98
2023-04-15T06:35:07.919Z,8.27
2023-04-15T06:37:36.523Z,8.51
2023-04-15T06:40:06.372Z,8.64
2023-04-15T06:42:37.603Z,8.41
2023-04-15T06:45:07.528Z,9.46
2023-04-15T06:47:35.943Z,8.93
2023-04-15T06:50:04.658Z,9.33
2023-04-15T06:52:32.540Z,9.85
2023-04-15T06:55:03.256Z,10.63
2023-04-15T06:57:33.284Z,10.81
2023-04-15T07:00:05.860Z,10.10
2023-04-15T07:02:34.526Z,10.27
2023-04-15T07:05:02.627Z,9.19
2023-04-15T07:07:30.676Z,9.95
2023-04-15T07:09:58.871Z,10.84
2023-04-15T07:12:28.266Z,11.82
2023-04-15T07:14:56.431Z,10.41
2023-04-15T07:17:26.064Z,10.49
2023-04-15T07:19:54.260Z,11.01
2023-04-15T07:22:22.533Z,12.05
2023-04-15T07:24:50.652Z,12.12
2023-04-15T07:27:19.286Z,13.45
2023-04-15T07:29:47.507Z,14.40
2023-04-15T07:32:15.384Z,14.74
2023-04-15T07:34:45.386Z,14.21
2023-04-15T07:37:14.165Z,14.53
2023-04-15T07:39:42.728Z,15.84
2023-04-15T07:42:13.964Z,15.85
2023-04-15T07:44:42.674Z,14.79
2023-04-15T07:47:10.949Z,16.07
2023-04-15T07:49:39.316Z,15.69
2023-04-15T07:52:09.139Z,14.93
2023-04-15T07:54:37.598Z,14.81
2023-04-15T07:57:05.884Z,14.51
2023-04-15T07:59:34.670Z,13.95
2023-04-15T08:02:02.932Z,14.54
2023-04-15T08:04:32.573Z,15.46
2023-04-15T08:07:00.987Z,15.75
2023-04-15T08:09:34.620Z,14.78
2023-04-15T08:12:03.492Z,13.61
2023-04-15T08:14:32.211Z,14.35
2023-04-15T08:17:05.563Z,14.70
2023-04-15T08:19:34.583Z,14.26
2023-04-15T08:22:02.720Z,14.96
2023-04-15T08:24:35.902Z,13.37
2023-04-15T08:27:08.152Z,13.84
2023-04-15T08:29:36.484Z,12.62
2023-04-15T08:32:04.917Z,12.56
2023-04-15T08:34:35.954Z,12.61
2023-04-15T08:37:05.301Z,12.87
2023-04-15T08:39:37.358Z,13.57
2023-04-15T08:42:07.885Z,13.77
2023-04-15T08:44:37.594Z,14.24
2023-04-15T08:47:09.296Z,13.95
2023-04-15T08:49:42.858Z,13.83
2023-04-15T08:52:11.190Z,14.46
2023-04-15T08:54:42.518Z,14.40
2023-04-15T08:57:12.211Z,14.77
2023-04-15T08:59:41.417Z,14.31
2023-04-15T09:02:10.225Z,15.32
2023-04-15T09:04:39.364Z,14.69
2023-04-15T09:07:07.911Z,14.72
2023-04-15T09:09:37.734Z,14.35
2023-04-15T09:12:06.997Z,15.59
2023-04-15T09:14:35.815Z,15.67
2023-04-15T09:17:06.133Z,16.12
2023-04-15T09:19:35.730Z,14.82
2023-04-15T09:22:03.901Z,16.07
2023-04-15T09:24:39.418Z,16.73
2023-04-15T09:27:09.646Z,17.86
2023-04-15T09:29:40.454Z,18.31
2023-04-15T09:32:13.053Z,17.22
2023-04-15T09:34:42.472Z,18.16
2023-04-15T09:37:11.180Z,17.85
2023-04-15T09:39:50.224Z,17.30
2023-04-15T09:42:24.683Z,15.28
2023-04-15T09:44:53.557Z,15.12
2023-04-15T09:47:32.924Z,14.94
2023-04-15T09:50:02.573Z,15.00
2023-04-15T09:52:30.697Z,14.78
2023-04-15T09:54:59.623Z,15.61
2023-04-15T09:57:38.000Z,16.40
2023-04-15T10:00:08.573Z,15.43
2023-04-15T10:02:37.585Z,15.59
2023-04-15T10:05:07.070Z,15.98
2023-04-15T10:07:35.759Z,15.15
2023-04-15T10:10:05.434Z,16.61
2023-04-15T10:12:35.443Z,17.96
2023-04-15T10:15:06.566Z,17.20
2023-04-15T10:17:35.736Z,16.61
2023-04-15T10:20:06.494Z,16.51
2023-04-15T10:22:34.537Z,16.68
2023-04-15T10:25:04.866Z,16.61
2023-04-15T10:27:34.724Z,16.62
2023-04-15T10:30:04.934Z,15.97
2023-04-15T10:32:33.405Z,15.03
2023-04-15T10:35:04.676Z,14.91
2023-04-15T10:37:37.517Z,14.57
2023-04-15T10:40:24.712Z,15.59
2023-04-15T10:42:54.891Z,15.51
2023-04-15T10:45:24.138Z,15.19
2023-04-15T10:48:01.546Z,15.19
2023-04-15T10:50:35.090Z,14.95
2023-04-15T10:53:04.367Z,15.22
2023-04-15T10:55:34.775Z,15.80
2023-04-15T10:58:04.574Z,15.85
2023-04-15T11:00:35.958Z,16.94
2023-04-15T11:03:07.532Z,18.03
2023-04-15T11:05:52.211Z,17.33
2023-04-15T11:08:20.769Z,17.20
2023-04-15T11:11:06.067Z,17.06
2023-04-15T11:13:36.268Z,17.42
2023-04-15T11:16:04.895Z,16.87
2023-04-15T11:18:34.122Z,17.29
2023-04-15T11:21:25.846Z,17.33
2023-04-15T11:23:58.260Z,16.40
2023-04-15T11:26:27.876Z,16.58
2023-04-15T11:28:57.244Z,17.20
2023-04-15T11:31:28.824Z,16.66
2023-04-15T11:34:00.449Z,20.09
2023-04-15T11:36:29.220Z,19.21
2023-04-15T11:38:57.104Z,17.95
2023-04-15T11:41:25.004Z,17.93
2023-04-15T11:43:53.691Z,18.47
2023-04-15T11:46:23.144Z,19.63
2023-04-15T11:48:51.165Z,16.09
2023-04-15T11:51:21.885Z,17.73
2023-04-15T11:53:50.619Z,16.88
2023-04-15T11:56:23.268Z,15.84
2023-04-15T11:58:53.733Z,14.77
2023-04-15T12:01:32.424Z,13.96
2023-04-15T12:04:01.562Z,14.75
2023-04-15T12:06:35.402Z,15.31
2023-04-15T12:09:05.697Z,15.11
2023-04-15T12:11:35.572Z,14.45
2023-04-15T12:14:11.157Z,13.92
2023-04-15T12:16:48.163Z,13.79
2023-04-15T12:19:20.222Z,14.13
2023-04-15T12:21:49.153Z,14.07
2023-04-15T12:24:22.387Z,13.77
2023-04-15T12:26:51.492Z,13.55
2023-04-15T12:29:19.852Z,13.36
2023-04-15T12:31:54.555Z,13.32
2023-04-15T12:34:31.580Z,13.44
2023-04-15T12:37:01.498Z,12.96
2023-04-15T12:39:32.736Z,12.87
2023-04-15T12:42:01.876Z,12.16
2023-04-15T12:44:31.978Z,12.02
2023-04-15T12:47:01.711Z,11.47
2023-04-15T12:49:31.112Z,11.32
2023-04-15T12:52:00.850Z,11.15
2023-04-15T12:54:29.248Z,11.14
2023-04-15T12:56:57.901Z,11.63
2023-04-15T12:59:26.275Z,11.60
2023-04-15T13:01:55.971Z,11.24
2023-04-15T13:04:25.721Z,11.49
2023-04-15T13:06:54.139Z,11.43
2023-04-15T13:09:23.005Z,11.31
2023-04-15T13:11:51.165Z,11.52
2023-04-15T13:14:19.354Z,11.58
2023-04-15T13:16:47.445Z,11.25
2023-04-15T13:19:15.581Z,11.30
2023-04-15T13:21:45.019Z,11.18
2023-04-15T13:24:16.468Z,11.33
2023-04-15T13:26:45.698Z,10.79
2023-04-15T13:29:14.503Z,10.60
2023-04-15T13:31:42.410Z,10.57
2023-04-15T13:34:10.639Z,10.45
2023-04-15T13:36:38.773Z,10.50
2023-04-15T13:39:11.163Z,10.47
2023-04-15T13:41:39.535Z,10.60
2023-04-15T13:44:09.365Z,10.59
2023-04-15T13:46:38.106Z,10.89
2023-04-15T13:49:06.292Z,11.16
2023-04-15T13:51:36.142Z,11.09
2023-04-15T13:54:04.462Z,10.85
2023-04-15T13:56:34.307Z,10.65
2023-04-15T13:59:03.205Z,11.27
2023-04-15T14:01:32.856Z,10.91
2023-04-15T14:04:02.687Z,11.29
2023-04-15T14:06:32.361Z,10.98
2023-04-15T14:09:00.325Z,10.78
2023-04-15T14:11:30.105Z,10.84
2023-04-15T14:14:05.011Z,10.69
2023-04-15T14:16:34.123Z,10.64
2023-04-15T14:19:03.965Z,10.48
2023-04-15T14:21:33.106Z,10.38
2023-04-15T14:24:01.049Z,10.50
2023-04-15T14:26:29.765Z,10.47
2023-04-15T14:28:59.662Z,10.60
2023-04-15T14:31:27.720Z,10.26
2023-04-15T14:33:56.263Z,10.14
2023-04-15T14:36:24.494Z,10.08
2023-04-15T14:38:52.668Z,10.05
2023-04-15T14:41:20.853Z,10.12
2023-04-15T14:43:51.926Z,9.95
2023-04-15T14:46:21.809Z,9.85
2023-04-15T14:48:50.114Z,10.03
2023-04-15T14:51:19.076Z,9.86
2023-04-15T14:53:47.182Z,9.93
2023-04-15T14:56:15.470Z,10.07
2023-04-15T14:58:43.880Z,10.16
2023-04-15T15:01:12.509Z,10.04
2023-04-15T15:03:42.560Z,9.96
2023-04-15T15:06:11.941Z,9.90
2023-04-15T15:08:40.329Z,9.81
2023-04-15T15:11:08.682Z,9.97
2023-04-15T15:13:36.716Z,9.96
2023-04-15T15:16:05.034Z,9.98
2023-04-15T15:18:33.685Z,10.04
2023-04-15T15:21:03.382Z,10.06
2023-04-15T15:23:32.350Z,9.99
2023-04-15T15:26:00.895Z,10.24
2023-04-15T15:28:29.721Z,10.06
2023-04-15T15:30:58.249Z,9.98
2023-04-15T15:33:30.034Z,9.92
2023-04-15T15:35:59.127Z,9.75
2023-04-15T15:38:29.509Z,9.66
2023-04-15T15:40:57.746Z,9.60
2023-04-15T15:43:26.153Z,9.51
2023-04-15T15:45:55.818Z,9.42
2023-04-15T15:48:24.433Z,9.38
2023-04-15T15:50:53.258Z,9.28
2023-04-15T15:53:24.590Z,9.38
2023-04-15T15:55:54.186Z,9.43
2023-04-15T15:58:22.385Z,9.44
2023-04-15T16:00:50.522Z,9.48
2023-04-15T16:03:18.741Z,9.38
2023-04-15T16:05:48.038Z,9.32
2023-04-15T16:08:16.211Z,9.34
2023-04-15T16:10:45.777Z,9.37
2023-04-15T16:13:15.338Z,9.34
2023-04-15T16:15:44.555Z,9.36
2023-04-15T16:18:12.638Z,9.48
2023-04-15T16:20:41.794Z,9.56
2023-04-15T16:23:15.504Z,9.50
2023-04-15T16:25:44.585Z,9.39
2023-04-15T16:28:25.807Z,9.31
2023-04-15T16:30:56.385Z,9.36
2023-04-15T16:33:24.658Z,9.27
2023-04-15T16:35:53.064Z,9.22
2023-04-15T16:38:21.625Z,9.24
2023-04-15T16:40:49.828Z,9.16
2023-04-15T16:43:17.839Z,9.20
2023-04-15T16:45:51.030Z,9.18
2023-04-15T16:48:22.726Z,9.15
2023-04-15T16:50:50.810Z,9.21
2023-04-15T16:53:19.034Z,9.15
2023-04-15T16:55:47.198Z,9.19
2023-04-15T16:58:15.363Z,9.19
2023-04-15T17:00:43.582Z,9.12
2023-04-15T17:03:12.202Z,9.07
2023-04-15T17:05:42.768Z,8.99
2023-04-15T17:08:11.274Z,9.02
2023-04-15T17:10:39.860Z,8.96
2023-04-15T17:13:08.071Z,9.00
2023-04-15T17:15:36.444Z,9.06
2023-04-15T17:18:06.034Z,9.08
2023-04-15T17:20:34.656Z,9.04
2023-04-15T17:23:04.969Z,8.93
2023-04-15T17:25:33.292Z,8.96
2023-04-15T17:28:02.052Z,9.03
2023-04-15T17:30:31.025Z,9.20
2023-04-15T17:32:59.514Z,9.08
2023-04-15T17:35:28.394Z,9.01
2023-04-15T17:43:42.563Z,8.96
2023-04-15T17:46:12.521Z,8.95
2023-04-15T17:48:41.257Z,8.94
2023-04-15T17:51:09.234Z,8.92
2023-04-15T17:53:38.221Z,8.89
2023-04-15T17:56:07.062Z,9.05
2023-04-15T17:58:35.546Z,8.94
2023-04-15T18:01:05.479Z,8.92
2023-04-15T18:03:34.379Z,8.88
2023-04-15T18:06:03.251Z,8.87
2023-04-15T18:08:32.482Z,8.99
2023-04-15T18:11:00.820Z,8.95
2023-04-15T18:13:29.033Z,8.98
2023-04-15T18:15:58.802Z,8.98
2023-04-15T18:24:13.726Z,8.88
2023-04-15T18:26:42.222Z,8.87
2023-04-15T18:29:12.512Z,8.81
2023-04-15T18:31:41.661Z,8.86
2023-04-15T18:34:10.154Z,8.95
2023-04-15T18:36:38.580Z,9.06
2023-04-15T18:39:06.829Z,8.85
2023-04-15T18:41:36.832Z,8.77
2023-04-15T18:44:05.760Z,8.90
2023-04-15T18:46:33.885Z,9.22
2023-04-15T18:49:02.409Z,9.11
2023-04-15T18:51:31.059Z,8.94
2023-04-15T18:53:59.446Z,8.88
2023-04-15T18:56:27.710Z,8.83
2023-04-15T18:59:27.516Z,8.87
2023-04-15T19:01:46.423Z,8.87
2023-04-15T19:04:15.053Z,8.89
2023-04-15T19:06:43.316Z,8.86
2023-04-15T19:09:11.626Z,8.87
2023-04-15T19:14:37.227Z,8.92
2023-04-15T19:17:05.521Z,8.93
2023-04-15T19:19:33.798Z,8.99
2023-04-15T19:22:03.861Z,8.96
2023-04-15T19:24:33.080Z,8.90
2023-04-15T19:27:04.189Z,8.93
2023-04-15T19:29:32.640Z,8.94
2023-04-15T19:32:01.873Z,8.91
2023-04-15T19:34:29.714Z,8.93
2023-04-15T19:36:57.953Z,8.85
2023-04-15T19:39:26.067Z,8.89
2023-04-15T19:41:55.519Z,8.89
2023-04-15T19:44:23.485Z,8.95
2023-04-15T19:46:53.320Z,8.98
2023-04-15T19:49:22.781Z,8.97
2023-04-15T19:51:51.392Z,8.91
2023-04-15T19:54:19.061Z,8.88
2023-04-15T19:56:47.012Z,8.88
2023-04-15T19:59:14.908Z,8.84
2023-04-15T20:01:42.971Z,8.84
2023-04-15T20:04:11.346Z,8.84
2023-04-15T20:06:40.912Z,8.88
2023-04-15T20:09:11.083Z,8.89
2023-04-15T20:12:09.715Z,8.89
2023-04-15T20:14:46.794Z,8.95
2023-04-15T20:17:15.838Z,9.00
2023-04-15T20:19:43.974Z,8.92
2023-04-15T20:22:13.178Z,8.99
2023-04-15T20:24:41.111Z,8.94
2023-04-15T20:27:08.945Z,8.90
2023-04-15T20:29:38.062Z,8.88
2023-04-15T20:32:06.728Z,8.89
2023-04-15T20:34:35.321Z,8.83
2023-04-15T20:37:03.206Z,8.87
2023-04-15T20:39:33.128Z,8.89
2023-04-15T20:42:01.575Z,8.88
2023-04-15T20:44:29.601Z,8.90
2023-04-15T20:46:57.637Z,8.87
2023-04-15T20:49:25.476Z,8.86
2023-04-15T20:51:53.600Z,8.83
2023-04-15T20:54:21.609Z,8.84
2023-04-15T20:56:51.264Z,8.84
2023-04-15T20:59:19.322Z,8.82
2023-04-15T21:01:47.968Z,8.85
2023-04-15T21:04:15.686Z,8.86
2023-04-15T21:06:43.836Z,8.86
2023-04-15T21:09:11.971Z,8.87
2023-04-15T21:11:57.212Z,8.89
2023-04-15T21:14:29.863Z,8.90
2023-04-15T21:16:58.612Z,8.92
2023-04-15T21:19:27.666Z,8.96
2023-04-15T21:21:55.928Z,8.95
2023-04-15T21:24:24.473Z,8.97
2023-04-15T21:26:52.777Z,9.00
2023-04-15T21:29:21.459Z,9.00
2023-04-15T21:31:51.634Z,9.02
2023-04-15T21:34:19.727Z,8.99
2023-04-15T21:36:48.024Z,9.00
2023-04-15T21:39:17.432Z,9.06
2023-04-15T21:41:45.850Z,9.02
2023-04-15T21:44:14.968Z,9.01
2023-04-15T21:46:46.014Z,9.03
2023-04-15T21:49:18.312Z,9.03
2023-04-15T21:51:48.640Z,9.05
2023-04-15T21:54:22.546Z,9.06
2023-04-15T21:56:51.672Z,9.14
2023-04-15T21:59:20.584Z,9.10
2023-04-15T22:01:50.346Z,9.05
2023-04-15T22:04:24.721Z,9.06
2023-04-15T22:06:56.159Z,9.05
2023-04-15T22:09:25.426Z,9.04
2023-04-15T22:11:54.751Z,9.07
2023-04-15T22:14:23.687Z,9.10
2023-04-15T22:16:52.298Z,9.10
2023-04-15T22:19:20.900Z,9.06
2023-04-15T22:21:51.199Z,9.07
2023-04-15T22:24:37.280Z,9.16
2023-04-15T22:27:08.997Z,9.25
2023-04-15T22:29:37.159Z,9.23
2023-04-15T22:32:06.170Z,9.26
2023-04-15T22:34:35.693Z,9.25
2023-04-15T22:37:05.795Z,9.18
2023-04-15T22:39:34.863Z,9.23
2023-04-15T22:42:03.735Z,9.18
2023-04-15T22:44:32.218Z,9.21
2023-04-15T22:47:00.692Z,9.21
2023-04-15T22:49:29.057Z,9.19
2023-04-15T22:51:57.361Z,9.18
2023-04-15T22:54:27.181Z,9.25
2023-04-15T22:56:56.572Z,9.23
2023-04-15T22:59:25.514Z,9.16
2023-04-15T23:01:54.349Z,9.24
2023-04-15T23:04:28.365Z,9.22
2023-04-15T23:06:58.106Z,9.19
2023-04-15T23:09:29.188Z,9.23
2023-04-15T23:11:58.612Z,9.18
2023-04-15T23:14:28.867Z,9.16
2023-04-15T23:16:59.787Z,9.21
2023-04-15T23:19:30.410Z,9.22
2023-04-15T23:21:59.317Z,9.20
2023-04-15T23:24:31.626Z,9.20
2023-04-15T23:27:01.439Z,9.22
2023-04-15T23:29:30.144Z,9.23
2023-04-15T23:32:00.086Z,9.22
2023-04-15T23:34:29.034Z,9.21
2023-04-15T23:36:57.685Z,9.23
2023-04-15T23:39:27.044Z,9.15
2023-04-15T23:41:58.207Z,9.16
2023-04-15T23:44:26.893Z,9.20
2023-04-15T23:46:56.029Z,9.23
2023-04-15T23:49:24.856Z,9.14
2023-04-15T23:51:54.149Z,9.13
2023-04-15T23:54:23.025Z,9.13
2023-04-15T23:56:53.068Z,9.15
2023-04-15T23:59:23.638Z,9.13
